Time;durP1;ratioP1;P1;durP2;ratioP2;P2;SDS_P1;SDS_P2;PMS_P1;PMS_P2;Temp;Humidity;BMP_temperature;BMP_pressure;BME280_temperature;BME280_humidity;BME280_pressure;Samples;Min_cycle;Max_cycle;Signal;HPM_P1;HPM_P2
2022/04/06 00:00:59;;;;;;;;;0.50;0.00;;;;;10.10;76.74;-18754.72;4977708;28;9960;-70
2022/04/06 00:03:25;;;;;;;;;2.50;2.50;;;;;10.10;76.44;-18754.88;4977407;28;9781;-69
2022/04/06 00:05:53;;;;;;;;;1.00;1.00;;;;;10.07;76.80;-18753.81;4978211;28;9770;-69
2022/04/06 00:08:19;;;;;;;;;0.00;0.00;;;;;10.07;77.25;-18753.81;4968124;28;9625;-69
2022/04/06 00:10:46;;;;;;;;;3.00;1.50;;;;;10.05;77.63;-18753.22;4976535;28;9700;-69
2022/04/06 00:13:13;;;;;;;;;2.25;2.25;;;;;10.05;77.50;-18753.22;4969444;28;9802;-69
2022/04/06 00:15:40;;;;;;;;;0.00;0.00;;;;;10.04;77.76;-18752.91;4959252;28;9844;-70
2022/04/06 00:18:07;;;;;;;;;1.00;1.00;;;;;10.01;78.06;-18752.16;4965213;28;9627;-69
2022/04/06 00:20:34;;;;;;;;;0.50;0.00;;;;;10.02;78.24;-18752.47;4977357;28;9777;-69
2022/04/06 00:23:00;;;;;;;;;1.00;0.00;;;;;10.01;78.08;-18752.00;4967984;28;9752;-70
2022/04/06 00:25:27;;;;;;;;;2.00;1.00;;;;;10.01;77.84;-18752.16;4969957;28;10001;-69
2022/04/06 00:27:53;;;;;;;;;1.00;1.00;;;;;10.04;78.44;-18752.91;4968294;28;9889;-69
2022/04/06 00:30:20;;;;;;;;;1.25;1.25;;;;;10.02;78.76;-18752.47;4974384;28;9755;-69
2022/04/06 00:32:46;;;;;;;;;0.25;0.25;;;;;10.01;78.95;-18752.16;4976394;28;9886;-69
2022/04/06 00:35:32;;;;;;;;;0.75;0.75;;;;;9.98;79.51;-18751.25;4976516;28;9864;-70
2022/04/06 00:38:00;;;;;;;;;2.00;2.00;;;;;9.97;79.88;-18750.97;4973661;28;9851;-70
2022/04/06 00:40:27;;;;;;;;;2.00;1.75;;;;;9.96;80.72;-18750.50;4955291;28;9813;-71
2022/04/06 00:42:54;;;;;;;;;1.00;0.25;;;;;9.92;81.45;-18749.28;4965470;28;10102;-69
2022/04/06 00:45:22;;;;;;;;;2.50;2.50;;;;;9.90;82.07;-18748.69;4973839;28;9793;-71
2022/04/06 00:47:49;;;;;;;;;4.50;2.00;;;;;9.87;82.50;-18748.09;4975691;28;10133;-71
2022/04/06 00:50:17;;;;;;;;;3.00;3.00;;;;;9.86;83.26;-18747.63;4975652;28;9985;-70
2022/04/06 00:52:44;;;;;;;;;3.75;3.50;;;;;9.83;83.76;-18746.88;4972640;28;10097;-71
2022/04/06 00:55:12;;;;;;;;;3.75;3.25;;;;;9.85;84.10;-18747.47;4975539;28;10040;-71
2022/04/06 00:57:39;;;;;;;;;3.25;3.25;;;;;9.81;85.08;-18746.28;4975326;28;10100;-70
2022/04/06 01:00:08;;;;;;;;;1.00;1.00;;;;;9.81;85.09;-18746.28;4972497;28;10015;-68
2022/04/06 01:02:34;;;;;;;;;3.00;2.50;;;;;9.83;85.31;-18746.72;4973879;28;9938;-69
2022/04/06 01:05:01;;;;;;;;;4.50;3.00;;;;;9.81;85.77;-18746.28;4973867;28;10094;-70
2022/04/06 01:07:29;;;;;;;;;5.00;5.00;;;;;9.80;86.27;-18745.97;4974318;28;9940;-69
2022/04/06 01:09:55;;;;;;;;;5.50;4.00;;;;;9.78;86.78;-18745.22;4972196;28;10113;-70
2022/04/06 01:12:24;;;;;;;;;2.75;2.75;;;;;9.78;86.89;-18745.38;4973431;28;10139;-71
2022/04/06 01:14:51;;;;;;;;;5.50;5.50;;;;;9.74;87.58;-18744.16;4971321;28;10045;-69
2022/04/06 01:17:17;;;;;;;;;7.00;7.00;;;;;9.74;88.11;-18744.16;4973243;28;9941;-71
2022/04/06 01:19:45;;;;;;;;;6.25;4.50;;;;;9.73;87.85;-18743.88;4972255;28;10054;-70
2022/04/06 01:22:17;;;;;;;;;4.50;4.00;;;;;9.72;87.90;-18743.41;4970351;28;10167;-70
2022/04/06 01:24:45;;;;;;;;;6.00;3.00;;;;;9.72;88.15;-18743.41;4954376;28;10263;-70
2022/04/06 01:27:12;;;;;;;;;6.25;6.25;;;;;9.73;88.74;-18743.72;4969947;28;10148;-71
2022/04/06 01:29:40;;;;;;;;;6.00;6.00;;;;;9.73;88.18;-18743.72;4969855;28;11023;-69
2022/04/06 01:32:11;;;;;;;;;6.50;6.00;;;;;9.72;88.08;-18743.56;4971262;28;10114;-70
2022/04/06 01:34:39;;;;;;;;;4.75;4.00;;;;;9.72;88.25;-18743.41;4966065;28;10898;-69
2022/04/06 01:37:08;;;;;;;;;7.00;3.00;;;;;9.73;88.28;-18743.72;4972828;28;10144;-69
2022/04/06 01:39:35;;;;;;;;;6.00;4.00;;;;;9.73;88.10;-18743.88;4972062;28;10111;-69
2022/04/06 01:42:03;;;;;;;;;5.00;5.00;;;;;9.70;87.61;-18742.81;4965525;28;10226;-68
2022/04/06 01:44:31;;;;;;;;;7.75;7.00;;;;;9.70;87.29;-18742.81;4967139;28;10164;-71
2022/04/06 01:46:58;;;;;;;;;4.25;4.00;;;;;9.71;86.88;-18743.09;4972824;28;10380;-71
2022/04/06 01:52:13;;;;;;;;;3.25;3.25;;;;;9.66;85.62;-18741.75;4973070;28;11395;-70
2022/04/06 01:54:45;;;;;;;;;5.50;5.00;;;;;9.67;85.74;-18742.06;4972236;28;10152;-70
2022/04/06 01:57:12;;;;;;;;;4.00;4.00;;;;;9.65;85.48;-18741.28;4972362;28;10129;-70
2022/04/06 01:59:39;;;;;;;;;8.50;3.00;;;;;9.66;85.57;-18741.75;4969379;28;10103;-71
2022/04/06 02:02:06;;;;;;;;;5.25;5.25;;;;;9.66;85.59;-18741.59;4972209;28;11007;-70
2022/04/06 02:04:33;;;;;;;;;6.00;6.00;;;;;9.64;84.54;-18741.13;4972152;28;10176;-72
2022/04/06 02:07:00;;;;;;;;;6.00;5.00;;;;;9.62;84.60;-18740.38;4972303;28;10186;-71
2022/04/06 02:09:26;;;;;;;;;4.00;3.00;;;;;9.61;84.54;-18740.25;4971421;28;10081;-69
2022/04/06 02:11:54;;;;;;;;;2.00;2.00;;;;;9.59;84.06;-18739.63;4971384;28;10307;-69
2022/04/06 02:14:20;;;;;;;;;7.25;3.50;;;;;9.60;84.35;-18739.78;4969404;28;10115;-69
2022/04/06 02:16:47;;;;;;;;;2.75;2.75;;;;;9.59;84.48;-18739.63;4971478;28;10323;-69
2022/04/06 02:19:13;;;;;;;;;3.75;2.75;;;;;9.56;84.27;-18738.88;4970215;28;10247;-69
2022/04/06 02:21:39;;;;;;;;;4.00;4.00;;;;;9.52;84.19;-18737.66;4971778;28;10284;-70
2022/04/06 02:24:06;;;;;;;;;6.00;4.25;;;;;9.48;84.17;-18736.47;4971998;28;10279;-71
2022/04/06 02:26:33;;;;;;;;;3.00;2.00;;;;;9.50;84.34;-18737.06;4972109;28;10386;-70
2022/04/06 02:29:00;;;;;;;;;2.25;2.25;;;;;9.49;84.27;-18736.63;4970464;28;10073;-70
2022/04/06 02:31:27;;;;;;;;;2.50;1.75;;;;;9.46;84.24;-18735.72;4971765;28;10149;-71
2022/04/06 02:33:54;;;;;;;;;4.00;2.00;;;;;9.44;83.99;-18735.25;4970963;28;10109;-70
2022/04/06 02:36:20;;;;;;;;;7.00;6.00;;;;;9.44;83.68;-18735.09;4970590;28;10371;-70
2022/04/06 02:38:47;;;;;;;;;3.25;3.25;;;;;9.42;83.31;-18734.50;4971754;28;10266;-70
2022/04/06 02:41:13;;;;;;;;;5.00;0.50;;;;;9.39;82.87;-18733.59;4971751;28;10253;-70
2022/04/06 02:43:40;;;;;;;;;2.50;2.00;;;;;9.39;83.33;-18733.59;4970071;28;10353;-70
2022/04/06 02:46:07;;;;;;;;;3.25;1.50;;;;;9.36;82.93;-18732.69;4970681;28;10860;-70
2022/04/06 02:48:33;;;;;;;;;3.00;3.00;;;;;9.34;82.58;-18732.25;4970602;28;10102;-70
2022/04/06 02:51:00;;;;;;;;;3.00;0.75;;;;;9.32;81.90;-18731.47;4971091;28;10465;-69
2022/04/06 02:53:26;;;;;;;;;2.50;2.50;;;;;9.31;81.01;-18731.19;4971591;28;10286;-70
2022/04/06 02:55:53;;;;;;;;;4.75;3.00;;;;;9.32;81.10;-18731.47;4971059;28;10243;-71
2022/04/06 02:58:19;;;;;;;;;1.00;1.00;;;;;9.32;81.13;-18731.47;4971784;28;10290;-70
2022/04/06 03:00:46;;;;;;;;;2.00;1.00;;;;;9.29;80.73;-18730.56;4971646;28;10241;-71
2022/04/06 03:03:12;;;;;;;;;5.00;3.75;;;;;9.27;80.62;-18729.97;4969671;28;10133;-70
2022/04/06 03:05:40;;;;;;;;;1.25;1.25;;;;;9.29;80.34;-18730.56;4969964;28;10289;-70
2022/04/06 03:08:08;;;;;;;;;2.00;2.00;;;;;9.30;79.85;-18730.88;4971358;28;10125;-70
2022/04/06 03:10:34;;;;;;;;;1.00;1.00;;;;;9.31;79.71;-18731.34;4968911;28;10225;-69
2022/04/06 03:13:01;;;;;;;;;1.50;1.50;;;;;9.32;79.81;-18731.63;4971382;28;10121;-71
2022/04/06 03:15:27;;;;;;;;;1.00;1.00;;;;;9.32;79.89;-18731.47;4971318;28;10223;-69
2022/04/06 03:17:54;;;;;;;;;1.00;1.00;;;;;9.32;80.33;-18731.63;4970562;28;10151;-69
2022/04/06 03:20:20;;;;;;;;;2.25;1.00;;;;;9.28;79.90;-18730.44;4961254;28;10096;-70
2022/04/06 03:22:46;;;;;;;;;2.00;2.00;;;;;9.31;79.99;-18731.19;4966077;28;10900;-70
2022/04/06 03:25:13;;;;;;;;;1.00;0.00;;;;;9.26;79.61;-18729.81;4974833;28;10166;-70
2022/04/06 03:27:40;;;;;;;;;2.00;2.00;;;;;9.28;79.30;-18730.28;4975269;28;10158;-70
2022/04/06 03:30:10;;;;;;;;;3.50;2.00;;;;;9.29;79.35;-18730.56;4973957;28;10218;-69
2022/04/06 03:32:37;;;;;;;;;3.25;2.00;;;;;9.28;78.78;-18730.28;4975372;28;10159;-70
2022/04/06 03:35:05;;;;;;;;;1.00;1.00;;;;;9.29;79.19;-18730.56;4957222;28;10246;-69
2022/04/06 03:37:32;;;;;;;;;3.25;1.75;;;;;9.27;79.20;-18730.13;4961492;28;9920;-70
2022/04/06 03:39:59;;;;;;;;;1.00;1.00;;;;;9.24;78.96;-18729.38;4965311;28;10108;-69
2022/04/06 03:42:25;;;;;;;;;0.50;0.50;;;;;9.25;78.67;-18729.53;4974933;28;10169;-69
2022/04/06 03:44:51;;;;;;;;;1.00;1.00;;;;;9.25;78.36;-18729.53;4975298;28;10741;-70
2022/04/06 03:47:19;;;;;;;;;1.50;1.00;;;;;9.24;78.89;-18729.38;4973653;28;10030;-68
2022/04/06 03:49:46;;;;;;;;;0.00;0.00;;;;;9.24;78.60;-18729.38;4972385;28;10231;-70
2022/04/06 03:52:12;;;;;;;;;1.00;0.00;;;;;9.25;78.54;-18729.53;4974823;28;10108;-70
2022/04/06 03:54:39;;;;;;;;;0.75;0.75;;;;;9.24;78.24;-18729.38;4989322;28;10160;-71
2022/04/06 03:57:05;;;;;;;;;2.00;0.50;;;;;9.24;78.28;-18729.22;4973754;28;10040;-71
2022/04/06 03:59:33;;;;;;;;;2.75;1.25;;;;;9.27;78.58;-18729.97;4968885;28;10060;-69
2022/04/06 04:01:59;;;;;;;;;2.00;0.25;;;;;9.25;78.31;-18729.53;4973327;28;10194;-70
2022/04/06 04:04:28;;;;;;;;;0.00;0.00;;;;;9.25;78.62;-18729.66;4973401;28;10036;-71
2022/04/06 04:06:54;;;;;;;;;2.25;2.00;;;;;9.28;77.58;-18730.44;4970251;28;10000;-69
2022/04/06 04:09:28;;;;;;;;;1.50;0.50;;;;;9.29;77.78;-18730.56;4974248;28;9957;-70
2022/04/06 04:11:56;;;;;;;;;2.00;1.00;;;;;9.28;78.56;-18730.28;4974339;28;10089;-70
2022/04/06 04:14:23;;;;;;;;;0.00;0.00;;;;;9.28;77.71;-18730.28;4973838;28;10032;-69
2022/04/06 04:16:49;;;;;;;;;1.25;1.00;;;;;9.28;77.57;-18730.44;4972290;28;10191;-69
2022/04/06 04:19:19;;;;;;;;;2.50;1.00;;;;;9.27;77.35;-18730.13;4989586;28;10012;-70
2022/04/06 04:21:45;;;;;;;;;0.00;0.00;;;;;9.28;76.46;-18730.44;4973809;28;10242;-69
2022/04/06 04:24:16;;;;;;;;;1.00;1.00;;;;;9.30;76.64;-18730.88;4974222;28;9936;-70
2022/04/06 04:26:43;;;;;;;;;0.00;0.00;;;;;9.29;76.77;-18730.56;4973557;28;10111;-69
2022/04/06 04:29:09;;;;;;;;;1.75;1.00;;;;;9.31;76.53;-18731.34;4972166;28;10706;-69
2022/04/06 04:31:36;;;;;;;;;0.00;0.00;;;;;9.29;76.53;-18730.72;4972934;28;10042;-70
2022/04/06 04:34:03;;;;;;;;;0.25;0.25;;;;;9.28;76.66;-18730.44;4974127;28;9834;-69
2022/04/06 04:36:30;;;;;;;;;1.00;1.00;;;;;9.31;76.39;-18731.19;4972058;28;9982;-68
2022/04/06 04:38:56;;;;;;;;;0.00;0.00;;;;;9.32;76.82;-18731.47;4966007;28;9939;-69
2022/04/06 04:41:23;;;;;;;;;1.00;1.00;;;;;9.31;76.60;-18731.19;4973745;28;9843;-70
2022/04/06 04:43:50;;;;;;;;;0.25;0.00;;;;;9.29;76.67;-18730.72;4974222;28;9907;-69
2022/04/06 04:46:18;;;;;;;;;1.00;0.00;;;;;9.31;76.78;-18731.34;4972870;28;10042;-69
2022/04/06 04:48:45;;;;;;;;;2.50;0.50;;;;;9.28;77.30;-18730.28;4965301;28;9925;-69
2022/04/06 04:51:12;;;;;;;;;0.50;0.50;;;;;9.27;77.57;-18729.97;4972453;28;10007;-69
2022/04/06 04:53:38;;;;;;;;;0.00;0.00;;;;;9.25;78.09;-18729.53;4972884;28;10034;-69
2022/04/06 04:56:05;;;;;;;;;1.00;1.00;;;;;9.19;78.84;-18727.72;4973819;28;9936;-69
2022/04/06 04:58:31;;;;;;;;;1.75;1.00;;;;;9.15;79.38;-18726.66;4973524;28;10109;-69
2022/04/06 05:00:58;;;;;;;;;1.25;0.50;;;;;9.12;79.97;-18725.59;4972679;28;9923;-69
2022/04/06 05:03:24;;;;;;;;;1.75;1.75;;;;;9.10;80.47;-18725.00;4987465;28;9950;-69
2022/04/06 05:05:53;;;;;;;;;5.75;1.00;;;;;9.12;80.53;-18725.59;4972805;28;10100;-69
2022/04/06 05:08:25;;;;;;;;;2.00;2.00;;;;;9.10;80.91;-18725.13;4972643;28;10051;-69
2022/04/06 05:10:51;;;;;;;;;1.00;1.00;;;;;9.12;80.98;-18725.59;4987327;28;10167;-70
2022/04/06 05:13:18;;;;;;;;;1.00;0.25;;;;;9.16;81.04;-18726.81;4973490;28;10189;-70
2022/04/06 05:15:45;;;;;;;;;1.00;1.00;;;;;9.12;81.26;-18725.75;4970124;28;9919;-69
2022/04/06 05:18:12;;;;;;;;;2.25;2.00;;;;;9.12;81.69;-18725.59;4964586;28;10160;-69
2022/04/06 05:20:39;;;;;;;;;1.75;0.75;;;;;9.14;81.64;-18726.34;4970563;28;10190;-69
2022/04/06 05:23:05;;;;;;;;;1.75;1.00;;;;;9.14;82.50;-18726.19;4971412;28;10115;-70
2022/04/06 05:25:32;;;;;;;;;2.50;2.50;;;;;9.12;82.39;-18725.75;4972434;28;10136;-70
2022/04/06 05:27:59;;;;;;;;;6.50;1.75;;;;;9.12;82.25;-18725.75;4973075;28;10320;-69
2022/04/06 05:30:26;;;;;;;;;2.00;2.00;;;;;9.14;82.72;-18726.34;4971649;28;10219;-69
2022/04/06 05:32:56;;;;;;;;;1.00;1.00;;;;;9.13;82.68;-18725.91;4971935;28;10215;-69
2022/04/06 05:35:26;;;;;;;;;1.00;1.00;;;;;9.09;82.72;-18724.69;4971555;28;10095;-69
2022/04/06 05:37:55;;;;;;;;;2.75;1.75;;;;;9.11;82.83;-18725.44;4968140;28;10780;-71
2022/04/06 05:40:22;;;;;;;;;1.50;1.00;;;;;9.11;83.24;-18725.44;4971347;28;10233;-69
2022/04/06 05:42:49;;;;;;;;;0.00;0.00;;;;;9.11;82.34;-18725.44;4972879;28;10247;-70
2022/04/06 05:45:16;;;;;;;;;4.00;3.00;;;;;9.11;82.35;-18725.28;4987957;28;10012;-70
2022/04/06 05:47:42;;;;;;;;;1.00;1.00;;;;;9.13;82.21;-18726.03;4985352;28;10422;-70
2022/04/06 05:50:10;;;;;;;;;1.00;0.75;;;;;9.16;82.67;-18726.81;4970161;28;10098;-71
2022/04/06 05:52:37;;;;;;;;;0.50;0.25;;;;;9.18;82.32;-18727.56;4969175;28;10254;-70
2022/04/06 05:55:05;;;;;;;;;3.00;2.00;;;;;9.19;82.20;-18727.88;4959316;28;10081;-69
2022/04/06 05:57:32;;;;;;;;;4.00;1.00;;;;;9.23;82.13;-18729.06;4968799;28;10088;-70
2022/04/06 05:59:58;;;;;;;;;2.00;1.00;;;;;9.24;82.66;-18729.22;4953392;28;10963;-70
2022/04/06 06:02:25;;;;;;;;;0.25;0.25;;;;;9.25;82.34;-18729.66;4957115;28;10028;-69
2022/04/06 06:04:52;;;;;;;;;2.25;0.75;;;;;9.27;82.75;-18729.97;4972001;28;10098;-70
2022/04/06 06:07:20;;;;;;;;;1.50;1.50;;;;;9.27;82.11;-18730.13;4972094;28;10018;-69
2022/04/06 06:09:46;;;;;;;;;2.00;1.00;;;;;9.26;82.86;-18729.81;4971220;28;10152;-69
2022/04/06 06:12:14;;;;;;;;;2.25;1.00;;;;;9.31;82.74;-18731.34;4967574;28;10172;-70
2022/04/06 06:14:41;;;;;;;;;4.00;1.00;;;;;9.29;82.75;-18730.72;4966363;28;10226;-70
2022/04/06 06:17:07;;;;;;;;;1.25;1.00;;;;;9.32;82.50;-18731.63;4969072;28;10118;-69
2022/04/06 06:19:34;;;;;;;;;0.00;0.00;;;;;9.32;82.69;-18731.63;4967913;28;10017;-70
2022/04/06 06:22:01;;;;;;;;;3.00;2.00;;;;;9.33;82.28;-18731.94;4970426;28;10167;-70
2022/04/06 06:24:27;;;;;;;;;1.00;0.50;;;;;9.32;82.22;-18731.47;4986486;28;9955;-69
2022/04/06 06:26:54;;;;;;;;;2.00;1.00;;;;;9.32;82.13;-18731.63;4971118;28;10787;-69
2022/04/06 06:29:22;;;;;;;;;2.25;2.25;;;;;9.32;82.57;-18731.63;4971016;28;10207;-70
2022/04/06 06:31:48;;;;;;;;;1.00;1.00;;;;;9.35;83.86;-18732.53;4970247;28;10336;-70
2022/04/06 06:34:15;;;;;;;;;1.50;1.00;;;;;9.30;84.12;-18731.03;4971077;28;10193;-69
2022/04/06 06:36:42;;;;;;;;;2.00;0.75;;;;;9.27;84.30;-18729.97;4968980;28;9923;-69
2022/04/06 06:39:08;;;;;;;;;0.75;0.75;;;;;9.30;84.88;-18730.88;4971348;28;10173;-69
2022/04/06 06:41:35;;;;;;;;;0.75;0.00;;;;;9.27;84.17;-18729.97;4965752;28;9953;-70
2022/04/06 06:44:05;;;;;;;;;2.00;0.00;;;;;9.30;84.68;-18730.88;4986272;28;9997;-69
2022/04/06 06:46:31;;;;;;;;;3.75;1.75;;;;;9.24;84.69;-18729.22;4985563;28;10338;-69
2022/04/06 06:49:02;;;;;;;;;1.00;1.00;;;;;9.27;85.30;-18730.13;4960884;28;10124;-67
2022/04/06 06:51:30;;;;;;;;;1.75;1.25;;;;;9.26;85.24;-18729.81;4967329;28;10164;-69
2022/04/06 06:53:58;;;;;;;;;2.25;2.00;;;;;9.23;85.06;-18729.06;4964321;28;10837;-69
2022/04/06 06:56:25;;;;;;;;;1.25;1.00;;;;;9.26;85.80;-18729.81;4965988;28;10171;-69
2022/04/06 06:58:51;;;;;;;;;3.50;0.50;;;;;9.27;86.76;-18730.13;4966474;28;9949;-69
2022/04/06 07:01:18;;;;;;;;;1.00;1.00;;;;;9.25;86.77;-18729.53;4965828;28;10045;-69
2022/04/06 07:03:44;;;;;;;;;0.00;0.00;;;;;9.21;86.75;-18728.47;4969718;28;9925;-70
2022/04/06 07:06:11;;;;;;;;;0.00;0.00;;;;;9.23;87.13;-18729.06;4968550;28;9987;-69
2022/04/06 07:08:37;;;;;;;;;1.50;1.00;;;;;9.21;87.29;-18728.47;4965408;28;10114;-71
2022/04/06 07:11:04;;;;;;;;;2.50;1.00;;;;;9.23;87.40;-18729.06;4969207;28;10210;-72
2022/04/06 07:13:30;;;;;;;;;2.00;1.25;;;;;9.22;87.23;-18728.63;4969832;28;10090;-71
2022/04/06 07:15:57;;;;;;;;;2.00;2.00;;;;;9.19;88.78;-18727.72;4965123;28;10111;-71
2022/04/06 07:18:23;;;;;;;;;2.00;2.00;;;;;9.13;89.59;-18726.03;4969437;28;10707;-69
2022/04/06 07:20:55;;;;;;;;;2.00;2.00;;;;;9.09;90.05;-18724.84;4968600;28;10023;-69
2022/04/06 07:23:21;;;;;;;;;0.50;0.50;;;;;9.02;91.08;-18722.56;4968792;28;10128;-69
2022/04/06 07:25:48;;;;;;;;;1.25;1.25;;;;;8.98;92.13;-18721.38;4969935;28;10093;-68
2022/04/06 07:28:15;;;;;;;;;4.00;4.00;;;;;8.92;92.44;-18719.69;4958393;28;10137;-70
2022/04/06 07:30:41;;;;;;;;;1.25;1.25;;;;;8.84;92.62;-18717.28;4968923;28;10970;-68
2022/04/06 07:33:09;;;;;;;;;1.00;1.00;;;;;8.85;93.47;-18717.59;4969878;28;10302;-68
2022/04/06 07:35:37;;;;;;;;;2.00;2.00;;;;;8.81;94.35;-18716.53;4969379;28;10184;-69
2022/04/06 07:38:04;;;;;;;;;2.00;1.00;;;;;8.81;94.27;-18716.53;4969236;28;10365;-68
2022/04/06 07:40:30;;;;;;;;;3.25;1.00;;;;;8.90;94.97;-18719.09;4981034;28;10287;-68
2022/04/06 07:42:56;;;;;;;;;1.25;1.25;;;;;8.91;94.82;-18719.56;4968551;28;10294;-69
2022/04/06 07:45:28;;;;;;;;;3.75;3.75;;;;;8.96;94.87;-18720.75;4969671;28;10291;-68
2022/04/06 07:47:55;;;;;;;;;1.25;1.00;;;;;8.93;95.50;-18720.00;4969626;28;10157;-68
2022/04/06 07:50:22;;;;;;;;;1.00;1.00;;;;;9.00;96.13;-18721.97;4967877;28;10175;-69
2022/04/06 07:52:49;;;;;;;;;1.00;1.00;;;;;9.00;96.27;-18722.13;4968236;28;10301;-71
2022/04/06 07:55:16;;;;;;;;;1.00;1.00;;;;;8.99;96.75;-18721.81;4965182;28;10186;-68
2022/04/06 07:57:43;;;;;;;;;0.25;0.25;;;;;9.01;97.37;-18722.28;4967586;28;10236;-68
2022/04/06 08:00:15;;;;;;;;;1.25;0.00;;;;;9.01;97.56;-18722.28;4968338;28;10285;-70
2022/04/06 08:02:44;;;;;;;;;1.00;1.00;;;;;9.04;97.69;-18723.34;4968853;28;10228;-69
2022/04/06 08:05:12;;;;;;;;;5.00;2.25;;;;;9.09;98.02;-18724.84;4969512;28;10032;-69
2022/04/06 08:07:43;;;;;;;;;1.50;1.50;;;;;9.09;97.66;-18724.84;4967718;28;10268;-70
2022/04/06 08:10:13;;;;;;;;;4.00;1.00;;;;;9.15;97.47;-18726.66;4967820;28;10257;-70
2022/04/06 08:12:40;;;;;;;;;1.00;1.00;;;;;9.21;97.23;-18728.47;4972801;28;10186;-69
2022/04/06 08:15:10;;;;;;;;;3.25;2.00;;;;;9.30;97.10;-18730.88;4972346;28;10836;-69
2022/04/06 08:17:40;;;;;;;;;1.00;1.00;;;;;9.31;96.88;-18731.19;4971989;28;10015;-70
2022/04/06 08:20:09;;;;;;;;;1.00;1.00;;;;;9.30;96.72;-18730.88;4971578;28;10275;-69
2022/04/06 08:22:36;;;;;;;;;1.25;1.25;;;;;9.33;96.45;-18731.94;4969471;28;10008;-68
2022/04/06 08:25:03;;;;;;;;;1.00;1.00;;;;;9.34;96.65;-18732.25;4972468;28;10077;-71
2022/04/06 08:27:50;;;;;;;;;2.00;1.00;;;;;9.34;96.83;-18732.25;4970292;28;10026;-70
2022/04/06 08:30:19;;;;;;;;;2.00;1.25;;;;;9.35;96.41;-18732.53;4971615;28;10087;-70
2022/04/06 08:32:47;;;;;;;;;0.00;0.00;;;;;9.40;96.73;-18734.03;4972667;28;10012;-69
2022/04/06 08:35:13;;;;;;;;;5.00;1.75;;;;;9.45;96.96;-18735.56;4971911;28;10019;-70
2022/04/06 08:37:40;;;;;;;;;4.00;1.00;;;;;9.53;96.91;-18737.81;4970543;28;9919;-69
2022/04/06 08:40:11;;;;;;;;;3.25;3.25;;;;;9.52;96.79;-18737.66;4970090;28;10665;-70
2022/04/06 08:42:38;;;;;;;;;1.50;1.50;;;;;9.54;96.95;-18738.13;4968477;28;10048;-70
2022/04/06 08:45:06;;;;;;;;;1.75;1.75;;;;;9.56;97.31;-18738.72;4971626;28;10027;-70
2022/04/06 08:47:34;;;;;;;;;1.00;0.75;;;;;9.55;97.23;-18738.56;4971946;28;10035;-69
2022/04/06 08:50:03;;;;;;;;;1.00;1.00;;;;;9.59;96.99;-18739.63;4969195;28;9954;-70
2022/04/06 08:52:35;;;;;;;;;4.50;2.00;;;;;9.63;96.49;-18740.69;4969000;28;10110;-69
2022/04/06 08:55:21;;;;;;;;;3.50;3.00;;;;;9.72;96.43;-18743.41;4969110;28;9929;-70
2022/04/06 08:57:48;;;;;;;;;6.25;4.00;;;;;9.81;96.25;-18746.28;4971315;28;10313;-69
2022/04/06 09:00:17;;;;;;;;;4.50;2.75;;;;;9.94;96.39;-18750.06;4969979;28;10847;-69
2022/04/06 09:02:45;;;;;;;;;3.00;1.25;;;;;9.96;95.99;-18750.50;4966204;28;10085;-71
2022/04/06 09:05:11;;;;;;;;;4.00;1.25;;;;;10.03;95.70;-18752.63;4972208;28;10027;-70
2022/04/06 09:07:39;;;;;;;;;1.00;1.00;;;;;10.01;95.10;-18752.00;4969356;28;10191;-68
2022/04/06 09:10:06;;;;;;;;;2.00;1.00;;;;;10.05;95.05;-18753.22;4969749;28;9934;-71
2022/04/06 09:12:32;;;;;;;;;5.00;3.00;;;;;10.14;93.97;-18756.09;4968608;28;9963;-70
2022/04/06 09:15:10;;;;;;;;;4.00;2.00;;;;;10.16;94.23;-18756.53;4971749;28;10025;-69
2022/04/06 09:17:46;;;;;;;;;2.00;2.00;;;;;10.22;94.07;-18758.19;4969941;28;9861;-69
2022/04/06 09:20:14;;;;;;;;;6.00;6.00;;;;;10.27;94.36;-18759.72;4970077;28;10030;-68
2022/04/06 09:22:46;;;;;;;;;6.00;2.75;;;;;10.38;94.63;-18763.03;4969472;28;10138;-69
2022/04/06 09:25:14;;;;;;;;;1.50;1.50;;;;;10.52;94.54;-18767.09;4971683;28;10088;-69
2022/04/06 09:27:41;;;;;;;;;4.50;3.50;;;;;10.55;93.38;-18768.16;4967743;28;9796;-69
2022/04/06 09:30:09;;;;;;;;;2.50;2.50;;;;;10.50;93.75;-18766.66;4967905;28;10096;-68
2022/04/06 09:32:35;;;;;;;;;3.00;2.75;;;;;10.48;93.60;-18766.06;4969394;28;9967;-69
2022/04/06 09:35:25;;;;;;;;;3.50;3.50;;;;;10.45;93.86;-18765.16;4971141;28;9760;-68
2022/04/06 09:38:08;;;;;;;;;4.75;4.25;;;;;10.44;93.36;-18765.00;4965912;28;10770;-68
2022/04/06 09:40:35;;;;;;;;;3.00;2.00;;;;;10.45;92.70;-18765.16;4969648;28;10662;-69
2022/04/06 09:43:01;;;;;;;;;6.00;3.50;;;;;10.54;92.81;-18767.72;4966795;28;9945;-69
2022/04/06 09:48:13;;;;;;;;;7.00;3.00;;;;;10.59;92.99;-18769.22;4965987;28;9953;-68
2022/04/06 09:50:43;;;;;;;;;2.00;1.50;;;;;10.69;92.59;-18772.38;4969250;28;9773;-68
2022/04/06 09:53:10;;;;;;;;;10.50;9.25;;;;;10.82;91.82;-18776.00;4968730;28;9843;-69
2022/04/06 09:55:38;;;;;;;;;2.00;2.00;;;;;10.99;91.49;-18781.13;4968403;28;10208;-71
2022/04/06 09:58:05;;;;;;;;;2.00;2.00;;;;;11.03;91.41;-18782.50;4970206;28;9671;-69
2022/04/06 10:00:34;;;;;;;;;5.75;3.75;;;;;11.04;91.05;-18782.63;4969912;28;9885;-72
2022/04/06 10:03:10;;;;;;;;;1.75;0.75;;;;;11.02;90.84;-18782.03;4970240;28;9769;-70
2022/04/06 10:05:38;;;;;;;;;2.00;2.00;;;;;11.03;90.85;-18782.50;4969188;28;9625;-70
2022/04/06 10:08:07;;;;;;;;;6.00;4.00;;;;;10.97;89.98;-18780.53;4968235;28;9847;-71
2022/04/06 10:10:35;;;;;;;;;1.00;1.00;;;;;10.98;90.16;-18780.84;4969941;28;9940;-69
2022/04/06 10:13:04;;;;;;;;;4.00;4.00;;;;;10.97;90.00;-18780.53;4965004;28;9697;-69
2022/04/06 10:15:51;;;;;;;;;3.50;3.00;;;;;10.93;89.76;-18779.31;4969266;28;9772;-69
2022/04/06 10:18:19;;;;;;;;;6.50;3.00;;;;;11.03;89.85;-18782.34;4969211;28;9922;-70
2022/04/06 10:20:59;;;;;;;;;1.75;1.75;;;;;11.03;89.18;-18782.34;4967475;28;9795;-70
2022/04/06 10:23:47;;;;;;;;;3.00;3.00;;;;;11.01;88.79;-18781.88;4967045;28;9741;-69
2022/04/06 10:26:19;;;;;;;;;6.00;5.00;;;;;11.08;88.39;-18784.00;4968929;28;9962;-69
2022/04/06 10:28:51;;;;;;;;;2.00;2.00;;;;;11.21;88.24;-18787.78;4970411;28;9750;-70
2022/04/06 10:31:24;;;;;;;;;6.50;3.00;;;;;11.28;88.23;-18789.72;4969459;28;9876;-69
2022/04/06 10:34:19;;;;;;;;;3.00;3.00;;;;;11.39;87.42;-18793.03;4965955;28;9687;-69
2022/04/06 10:37:06;;;;;;;;;3.50;3.50;;;;;11.48;86.93;-18795.75;4966987;28;9562;-70
2022/04/06 10:40:02;;;;;;;;;7.00;4.00;;;;;11.59;86.08;-18799.06;4964589;28;10399;-71
2022/04/06 10:42:34;;;;;;;;;8.00;1.50;;;;;11.45;86.30;-18794.72;4969684;28;9928;-70
2022/04/06 10:45:03;;;;;;;;;2.00;2.00;;;;;11.42;87.41;-18793.81;4968159;28;9687;-70
2022/04/06 10:47:31;;;;;;;;;3.00;1.00;;;;;11.36;88.42;-18792.28;4968783;28;9699;-70
2022/04/06 10:50:10;;;;;;;;;3.50;2.75;;;;;11.30;88.88;-18790.34;4967839;28;9621;-70
2022/04/06 10:52:36;;;;;;;;;3.25;3.25;;;;;11.25;89.77;-18788.97;4969667;28;9691;-71
2022/04/06 10:55:11;;;;;;;;;5.25;2.00;;;;;11.07;89.95;-18783.69;4967122;28;9664;-70
2022/04/06 10:57:56;;;;;;;;;4.00;2.50;;;;;11.03;91.44;-18782.50;4970139;28;9809;-70
2022/04/06 11:00:25;;;;;;;;;2.75;2.75;;;;;11.02;92.54;-18782.19;4965324;28;10460;-70
2022/04/06 11:02:52;;;;;;;;;2.75;2.00;;;;;11.01;92.68;-18781.75;4969935;28;9842;-70
2022/04/06 11:05:46;;;;;;;;;3.00;3.00;;;;;10.92;92.93;-18779.03;4969322;28;9675;-70
2022/04/06 11:11:45;;;;;;;;;2.00;1.75;;;;;10.82;93.25;-18776.00;4966198;28;9711;-68
2022/04/06 11:14:33;;;;;;;;;5.00;3.00;;;;;10.99;94.09;-18781.13;4968642;28;9691;-68
2022/04/06 11:16:59;;;;;;;;;2.50;2.50;;;;;10.97;93.15;-18780.53;4963983;28;9617;-68
2022/04/06 11:19:27;;;;;;;;;2.25;2.00;;;;;10.95;93.63;-18779.94;4965173;28;10424;-68
2022/04/06 11:21:58;;;;;;;;;2.25;2.25;;;;;10.83;92.43;-18776.47;4962948;28;9780;-69
2022/04/06 11:24:28;;;;;;;;;1.50;1.50;;;;;10.76;92.47;-18774.34;4965423;28;9800;-69
2022/04/06 11:26:55;;;;;;;;;2.00;2.00;;;;;10.74;92.96;-18773.91;4968428;28;9853;-70
2022/04/06 11:29:28;;;;;;;;;3.50;2.00;;;;;10.79;92.43;-18775.41;4969349;28;10388;-70
2022/04/06 11:32:13;;;;;;;;;1.50;1.50;;;;;10.83;91.13;-18776.31;4968741;28;9759;-70
2022/04/06 11:34:40;;;;;;;;;2.00;1.00;;;;;10.90;90.51;-18778.56;4968153;28;9750;-71
2022/04/06 11:37:09;;;;;;;;;5.25;2.25;;;;;10.95;89.70;-18779.94;4968341;28;9682;-70
2022/04/06 11:39:36;;;;;;;;;1.00;1.00;;;;;11.01;89.86;-18781.75;4968024;28;9909;-69
2022/04/06 11:42:04;;;;;;;;;3.50;2.25;;;;;11.06;89.85;-18783.41;4969266;28;9704;-70
2022/04/06 11:44:32;;;;;;;;;2.50;1.00;;;;;11.09;89.66;-18784.16;4967120;28;9868;-69
2022/04/06 11:46:59;;;;;;;;;2.50;1.00;;;;;11.10;90.28;-18784.44;4971130;28;9773;-68
2022/04/06 11:49:29;;;;;;;;;4.25;1.75;;;;;10.98;89.50;-18780.84;4971804;28;9777;-69